sensor_id;sensor_type;location;lat;lon;timestamp;pressure;altitude;pressure_sealevel;temperature;humidity
39681;BME280;26327;42.550;23.120;2022-12-18T00:00:42;93392.03;;;8.05;100.00
39681;BME280;26327;42.550;23.120;2022-12-18T00:03:07;93456.56;;;8.76;100.00
39681;BME280;26327;42.550;23.120;2022-12-18T00:05:33;93479.75;;;7.98;100.00
39681;BME280;26327;42.550;23.120;2022-12-18T00:07:58;93413.19;;;7.47;100.00
39681;BME280;26327;42.550;23.120;2022-12-18T00:10:24;93462.75;;;7.42;100.00
39681;BME280;26327;42.550;23.120;2022-12-18T00:12:49;93420.75;;;8.02;100.00
39681;BME280;26327;42.550;23.120;2022-12-18T00:15:15;93401.31;;;7.98;100.00
39681;BME280;26327;42.550;23.120;2022-12-18T00:17:40;93472.97;;;7.44;100.00
39681;BME280;26327;42.550;23.120;2022-12-18T00:20:06;93471.72;;;7.83;100.00
39681;BME280;26327;42.550;23.120;2022-12-18T00:22:32;93484.25;;;8.32;100.00
39681;BME280;26327;42.550;23.120;2022-12-18T00:24:57;93499.75;;;8.49;100.00
39681;BME280;26327;42.550;23.120;2022-12-18T00:27:22;93497.03;;;8.51;100.00
39681;BME280;26327;42.550;23.120;2022-12-18T00:29:48;93511.56;;;8.70;100.00
39681;BME280;26327;42.550;23.120;2022-12-18T00:32:13;93497.22;;;7.96;100.00
39681;BME280;26327;42.550;23.120;2022-12-18T00:34:39;93457.31;;;8.42;100.00
39681;BME280;26327;42.550;23.120;2022-12-18T00:37:04;93429.19;;;8.47;100.00
39681;BME280;26327;42.550;23.120;2022-12-18T00:39:29;93432.25;;;8.25;100.00
39681;BME280;26327;42.550;23.120;2022-12-18T00:41:55;93513.03;;;8.72;100.00
39681;BME280;26327;42.550;23.120;2022-12-18T00:44:39;93453.53;;;8.11;100.00
39681;BME280;26327;42.550;23.120;2022-12-18T00:47:04;93440.50;;;8.20;100.00
39681;BME280;26327;42.550;23.120;2022-12-18T00:49:29;93411.31;;;8.10;100.00
39681;BME280;26327;42.550;23.120;2022-12-18T00:51:55;93447.94;;;8.24;100.00
39681;BME280;26327;42.550;23.120;2022-12-18T00:54:20;93497.06;;;8.33;100.00
39681;BME280;26327;42.550;23.120;2022-12-18T00:56:46;93531.81;;;8.48;100.00
39681;BME280;26327;42.550;23.120;2022-12-18T00:59:11;93452.38;;;7.70;100.00
39681;BME280;26327;42.550;23.120;2022-12-18T01:01:36;93519.50;;;8.07;100.00
39681;BME280;26327;42.550;23.120;2022-12-18T01:04:02;93503.81;;;7.90;100.00
39681;BME280;26327;42.550;23.120;2022-12-18T01:06:28;93525.78;;;8.04;100.00
39681;BME280;26327;42.550;23.120;2022-12-18T01:08:54;93452.28;;;7.44;100.00
39681;BME280;26327;42.550;23.120;2022-12-18T01:11:20;93508.19;;;8.08;100.00
39681;BME280;26327;42.550;23.120;2022-12-18T01:13:46;93519.84;;;7.94;100.00
39681;BME280;26327;42.550;23.120;2022-12-18T01:16:12;93438.69;;;7.42;100.00
39681;BME280;26327;42.550;23.120;2022-12-18T01:18:39;93510.47;;;8.11;100.00
39681;BME280;26327;42.550;23.120;2022-12-18T01:21:09;93516.16;;;7.79;100.00
39681;BME280;26327;42.550;23.120;2022-12-18T01:23:35;93506.69;;;7.87;100.00
39681;BME280;26327;42.550;23.120;2022-12-18T01:26:08;93515.56;;;7.85;100.00
39681;BME280;26327;42.550;23.120;2022-12-18T01:28:34;93478.84;;;7.18;100.00
39681;BME280;26327;42.550;23.120;2022-12-18T01:33:35;93529.06;;;7.34;100.00
39681;BME280;26327;42.550;23.120;2022-12-18T01:36:01;93545.03;;;7.29;100.00
39681;BME280;26327;42.550;23.120;2022-12-18T01:38:28;93543.28;;;7.47;100.00
39681;BME280;26327;42.550;23.120;2022-12-18T01:41:00;93546.88;;;7.64;100.00
39681;BME280;26327;42.550;23.120;2022-12-18T01:43:43;93539.28;;;7.63;100.00
39681;BME280;26327;42.550;23.120;2022-12-18T01:46:08;93520.31;;;7.44;100.00
39681;BME280;26327;42.550;23.120;2022-12-18T01:48:34;93543.28;;;7.75;100.00
39681;BME280;26327;42.550;23.120;2022-12-18T01:51:00;93489.31;;;7.17;100.00
39681;BME280;26327;42.550;23.120;2022-12-18T01:53:26;93545.00;;;7.56;100.00
39681;BME280;26327;42.550;23.120;2022-12-18T01:55:53;93559.31;;;7.78;100.00
39681;BME280;26327;42.550;23.120;2022-12-18T01:58:24;93428.53;;;6.85;100.00
39681;BME280;26327;42.550;23.120;2022-12-18T02:00:54;93563.88;;;7.02;100.00
39681;BME280;26327;42.550;23.120;2022-12-18T02:03:20;93493.59;;;6.99;100.00
39681;BME280;26327;42.550;23.120;2022-12-18T02:05:58;93560.66;;;7.55;100.00
39681;BME280;26327;42.550;23.120;2022-12-18T02:11:25;93569.63;;;7.61;100.00
39681;BME280;26327;42.550;23.120;2022-12-18T02:19:01;93580.41;;;7.29;100.00
39681;BME280;26327;42.550;23.120;2022-12-18T02:24:05;93586.13;;;7.50;100.00
39681;BME280;26327;42.550;23.120;2022-12-18T02:26:44;93565.16;;;7.53;100.00
39681;BME280;26327;42.550;23.120;2022-12-18T02:29:15;93516.94;;;7.07;100.00
39681;BME280;26327;42.550;23.120;2022-12-18T02:31:45;93514.09;;;7.10;100.00
39681;BME280;26327;42.550;23.120;2022-12-18T02:34:12;93451.50;;;6.88;100.00
39681;BME280;26327;42.550;23.120;2022-12-18T02:36:40;93531.28;;;7.29;100.00
39681;BME280;26327;42.550;23.120;2022-12-18T02:39:10;93588.94;;;7.66;100.00
39681;BME280;26327;42.550;23.120;2022-12-18T02:41:36;93580.34;;;7.66;100.00
39681;BME280;26327;42.550;23.120;2022-12-18T02:44:08;93546.09;;;7.54;100.00
39681;BME280;26327;42.550;23.120;2022-12-18T02:46:45;93510.59;;;7.01;100.00
39681;BME280;26327;42.550;23.120;2022-12-18T02:51:53;93601.94;;;7.74;100.00
39681;BME280;26327;42.550;23.120;2022-12-18T02:57:45;93537.69;;;7.24;100.00
39681;BME280;26327;42.550;23.120;2022-12-18T03:00:24;93583.56;;;7.50;100.00
39681;BME280;26327;42.550;23.120;2022-12-18T03:05:40;93584.94;;;7.17;100.00
39681;BME280;26327;42.550;23.120;2022-12-18T03:08:12;93614.38;;;7.34;100.00
39681;BME280;26327;42.550;23.120;2022-12-18T03:10:45;93599.78;;;7.05;100.00
39681;BME280;26327;42.550;23.120;2022-12-18T03:13:39;93621.81;;;7.00;100.00
39681;BME280;26327;42.550;23.120;2022-12-18T03:16:09;93556.38;;;6.72;100.00
39681;BME280;26327;42.550;23.120;2022-12-18T03:18:39;93602.28;;;6.87;100.00
39681;BME280;26327;42.550;23.120;2022-12-18T03:21:10;93630.09;;;7.03;100.00
39681;BME280;26327;42.550;23.120;2022-12-18T03:23:40;93636.25;;;6.92;100.00
39681;BME280;26327;42.550;23.120;2022-12-18T03:26:10;93615.06;;;6.89;100.00
39681;BME280;26327;42.550;23.120;2022-12-18T03:28:39;93614.25;;;6.79;100.00
39681;BME280;26327;42.550;23.120;2022-12-18T03:31:09;93617.38;;;6.82;100.00
39681;BME280;26327;42.550;23.120;2022-12-18T03:33:52;93634.91;;;6.88;100.00
39681;BME280;26327;42.550;23.120;2022-12-18T03:36:17;93644.16;;;6.62;100.00
39681;BME280;26327;42.550;23.120;2022-12-18T03:38:43;93658.03;;;6.61;100.00
39681;BME280;26327;42.550;23.120;2022-12-18T03:46:30;93578.16;;;6.02;100.00
39681;BME280;26327;42.550;23.120;2022-12-18T03:49:02;93665.38;;;6.46;100.00
39681;BME280;26327;42.550;23.120;2022-12-18T03:54:06;93597.56;;;5.96;100.00
39681;BME280;26327;42.550;23.120;2022-12-18T03:56:39;93595.41;;;6.01;100.00
39681;BME280;26327;42.550;23.120;2022-12-18T03:59:05;93682.75;;;6.25;100.00
39681;BME280;26327;42.550;23.120;2022-12-18T04:01:36;93602.81;;;5.75;100.00
39681;BME280;26327;42.550;23.120;2022-12-18T04:04:04;93682.88;;;6.23;100.00
39681;BME280;26327;42.550;23.120;2022-12-18T04:06:31;93687.91;;;6.25;100.00
39681;BME280;26327;42.550;23.120;2022-12-18T04:08:58;93678.75;;;6.02;100.00
39681;BME280;26327;42.550;23.120;2022-12-18T04:11:24;93614.28;;;5.52;100.00
39681;BME280;26327;42.550;23.120;2022-12-18T04:13:49;93691.91;;;5.98;100.00
39681;BME280;26327;42.550;23.120;2022-12-18T04:16:15;93628.25;;;5.59;100.00
39681;BME280;26327;42.550;23.120;2022-12-18T04:18:40;93676.63;;;5.76;100.00
39681;BME280;26327;42.550;23.120;2022-12-18T04:21:06;93685.22;;;5.86;100.00
39681;BME280;26327;42.550;23.120;2022-12-18T04:23:31;93689.19;;;5.90;100.00
39681;BME280;26327;42.550;23.120;2022-12-18T04:25:56;93615.69;;;5.25;100.00
39681;BME280;26327;42.550;23.120;2022-12-18T04:28:22;93690.53;;;5.54;100.00
39681;BME280;26327;42.550;23.120;2022-12-18T04:30:47;93713.78;;;6.04;100.00
39681;BME280;26327;42.550;23.120;2022-12-18T04:33:16;93703.88;;;6.09;100.00
39681;BME280;26327;42.550;23.120;2022-12-18T04:35:41;93692.63;;;5.70;100.00
39681;BME280;26327;42.550;23.120;2022-12-18T04:38:07;93713.16;;;5.81;100.00
39681;BME280;26327;42.550;23.120;2022-12-18T04:40:37;93734.53;;;5.93;100.00
39681;BME280;26327;42.550;23.120;2022-12-18T04:43:03;93728.59;;;6.02;100.00
39681;BME280;26327;42.550;23.120;2022-12-18T04:45:30;93720.13;;;5.90;100.00
39681;BME280;26327;42.550;23.120;2022-12-18T04:47:57;93647.44;;;5.35;100.00
39681;BME280;26327;42.550;23.120;2022-12-18T04:50:23;93719.41;;;5.79;100.00
39681;BME280;26327;42.550;23.120;2022-12-18T04:52:48;93741.31;;;5.94;100.00
39681;BME280;26327;42.550;23.120;2022-12-18T04:55:13;93705.41;;;5.72;100.00
39681;BME280;26327;42.550;23.120;2022-12-18T04:57:39;93678.34;;;5.66;100.00
39681;BME280;26327;42.550;23.120;2022-12-18T05:00:04;93756.84;;;6.04;100.00
39681;BME280;26327;42.550;23.120;2022-12-18T05:02:31;93693.75;;;5.47;100.00
39681;BME280;26327;42.550;23.120;2022-12-18T05:04:56;93760.88;;;5.96;100.00
39681;BME280;26327;42.550;23.120;2022-12-18T05:07:21;93691.56;;;5.42;100.00
39681;BME280;26327;42.550;23.120;2022-12-18T05:09:47;93766.88;;;6.07;100.00
39681;BME280;26327;42.550;23.120;2022-12-18T05:12:12;93693.53;;;5.59;100.00
39681;BME280;26327;42.550;23.120;2022-12-18T05:14:38;93706.28;;;5.61;100.00
39681;BME280;26327;42.550;23.120;2022-12-18T05:17:03;93782.13;;;5.89;100.00
39681;BME280;26327;42.550;23.120;2022-12-18T05:19:28;93779.47;;;5.90;100.00
39681;BME280;26327;42.550;23.120;2022-12-18T05:21:54;93781.16;;;6.11;100.00
39681;BME280;26327;42.550;23.120;2022-12-18T05:24:19;93713.28;;;5.49;100.00
39681;BME280;26327;42.550;23.120;2022-12-18T05:26:44;93714.69;;;5.63;100.00
39681;BME280;26327;42.550;23.120;2022-12-18T05:29:10;93730.50;;;5.69;100.00
39681;BME280;26327;42.550;23.120;2022-12-18T05:31:38;93800.78;;;5.92;100.00
39681;BME280;26327;42.550;23.120;2022-12-18T05:34:03;93707.28;;;5.39;100.00
39681;BME280;26327;42.550;23.120;2022-12-18T05:36:29;93790.06;;;5.97;100.00
39681;BME280;26327;42.550;23.120;2022-12-18T05:38:54;93796.44;;;5.93;100.00
39681;BME280;26327;42.550;23.120;2022-12-18T05:41:20;93796.56;;;5.91;100.00
39681;BME280;26327;42.550;23.120;2022-12-18T05:43:45;93777.47;;;5.73;100.00
39681;BME280;26327;42.550;23.120;2022-12-18T05:46:15;93792.81;;;5.75;100.00
39681;BME280;26327;42.550;23.120;2022-12-18T05:48:43;93810.97;;;5.73;100.00
39681;BME280;26327;42.550;23.120;2022-12-18T05:51:17;93798.81;;;5.64;100.00
39681;BME280;26327;42.550;23.120;2022-12-18T05:53:43;93748.97;;;5.23;100.00
39681;BME280;26327;42.550;23.120;2022-12-18T05:56:20;93804.19;;;5.51;100.00
39681;BME280;26327;42.550;23.120;2022-12-18T05:58:46;93748.56;;;5.07;100.00
39681;BME280;26327;42.550;23.120;2022-12-18T06:01:15;93815.13;;;5.44;100.00
39681;BME280;26327;42.550;23.120;2022-12-18T06:03:41;93744.66;;;4.92;100.00
39681;BME280;26327;42.550;23.120;2022-12-18T06:06:20;93829.97;;;5.30;100.00
39681;BME280;26327;42.550;23.120;2022-12-18T06:08:46;93759.94;;;4.84;100.00
39681;BME280;26327;42.550;23.120;2022-12-18T06:11:12;93812.22;;;5.16;100.00
39681;BME280;26327;42.550;23.120;2022-12-18T06:13:38;93819.34;;;5.24;100.00
39681;BME280;26327;42.550;23.120;2022-12-18T06:16:04;93823.47;;;5.15;100.00
39681;BME280;26327;42.550;23.120;2022-12-18T06:18:31;93835.19;;;5.08;100.00
39681;BME280;26327;42.550;23.120;2022-12-18T06:20:57;93849.09;;;5.17;100.00
39681;BME280;26327;42.550;23.120;2022-12-18T06:23:22;93847.13;;;5.20;100.00
39681;BME280;26327;42.550;23.120;2022-12-18T06:25:48;93839.59;;;4.96;100.00
39681;BME280;26327;42.550;23.120;2022-12-18T06:28:13;93834.38;;;5.07;100.00
39681;BME280;26327;42.550;23.120;2022-12-18T06:30:39;93779.41;;;4.65;100.00
39681;BME280;26327;42.550;23.120;2022-12-18T06:33:04;93859.19;;;5.09;100.00
39681;BME280;26327;42.550;23.120;2022-12-18T06:35:31;93846.25;;;4.99;100.00
39681;BME280;26327;42.550;23.120;2022-12-18T06:37:57;93839.47;;;4.98;100.00
39681;BME280;26327;42.550;23.120;2022-12-18T06:40:22;93849.09;;;4.85;100.00
39681;BME280;26327;42.550;23.120;2022-12-18T06:42:48;93797.50;;;4.43;100.00
39681;BME280;26327;42.550;23.120;2022-12-18T06:45:13;93873.31;;;4.93;100.00
39681;BME280;26327;42.550;23.120;2022-12-18T06:47:38;93866.34;;;5.05;100.00
39681;BME280;26327;42.550;23.120;2022-12-18T06:50:06;93819.84;;;4.86;100.00
39681;BME280;26327;42.550;23.120;2022-12-18T06:52:32;93874.41;;;5.12;100.00
39681;BME280;26327;42.550;23.120;2022-12-18T06:54:57;93805.25;;;4.75;100.00
39681;BME280;26327;42.550;23.120;2022-12-18T06:57:23;93818.34;;;4.83;100.00
39681;BME280;26327;42.550;23.120;2022-12-18T06:59:48;93881.25;;;5.33;100.00
39681;BME280;26327;42.550;23.120;2022-12-18T07:02:14;93886.16;;;5.36;100.00
39681;BME280;26327;42.550;23.120;2022-12-18T07:04:39;93898.78;;;5.40;100.00
39681;BME280;26327;42.550;23.120;2022-12-18T07:07:05;93821.06;;;5.02;100.00
39681;BME280;26327;42.550;23.120;2022-12-18T07:09:30;93890.56;;;5.46;100.00
39681;BME280;26327;42.550;23.120;2022-12-18T07:11:55;93895.47;;;5.49;100.00
39681;BME280;26327;42.550;23.120;2022-12-18T07:14:21;93842.13;;;5.07;100.00
39681;BME280;26327;42.550;23.120;2022-12-18T07:16:46;93827.72;;;5.05;100.00
39681;BME280;26327;42.550;23.120;2022-12-18T07:19:12;93824.63;;;5.22;100.00
39681;BME280;26327;42.550;23.120;2022-12-18T07:21:37;93880.00;;;5.28;100.00
39681;BME280;26327;42.550;23.120;2022-12-18T07:24:02;93879.88;;;5.50;100.00
39681;BME280;26327;42.550;23.120;2022-12-18T07:26:28;93911.53;;;5.73;100.00
39681;BME280;26327;42.550;23.120;2022-12-18T07:28:57;93901.91;;;5.75;100.00
39681;BME280;26327;42.550;23.120;2022-12-18T07:31:23;93834.75;;;5.35;100.00
39681;BME280;26327;42.550;23.120;2022-12-18T07:33:50;93900.88;;;5.46;100.00
39681;BME280;26327;42.550;23.120;2022-12-18T07:36:15;93845.19;;;5.33;100.00
39681;BME280;26327;42.550;23.120;2022-12-18T07:38:41;93882.63;;;5.69;100.00
39681;BME280;26327;42.550;23.120;2022-12-18T07:41:09;93913.88;;;5.76;100.00
39681;BME280;26327;42.550;23.120;2022-12-18T07:43:35;93859.56;;;5.36;100.00
39681;BME280;26327;42.550;23.120;2022-12-18T07:46:01;93905.94;;;5.89;100.00
39681;BME280;26327;42.550;23.120;2022-12-18T07:48:28;93847.00;;;5.63;100.00
39681;BME280;26327;42.550;23.120;2022-12-18T07:50:53;93857.63;;;5.49;100.00
39681;BME280;26327;42.550;23.120;2022-12-18T07:53:19;93842.03;;;5.51;100.00
39681;BME280;26327;42.550;23.120;2022-12-18T07:55:44;93786.44;;;5.16;100.00
39681;BME280;26327;42.550;23.120;2022-12-18T07:58:09;93913.31;;;6.14;100.00
39681;BME280;26327;42.550;23.120;2022-12-18T08:00:35;93843.13;;;5.69;100.00
39681;BME280;26327;42.550;23.120;2022-12-18T08:03:00;93852.50;;;5.91;100.00
39681;BME280;26327;42.550;23.120;2022-12-18T08:05:26;93841.41;;;5.79;100.00
39681;BME280;26327;42.550;23.120;2022-12-18T08:07:52;93929.97;;;6.61;100.00
39681;BME280;26327;42.550;23.120;2022-12-18T08:10:18;93807.47;;;5.53;100.00
39681;BME280;26327;42.550;23.120;2022-12-18T08:12:44;93932.66;;;6.20;100.00
39681;BME280;26327;42.550;23.120;2022-12-18T08:15:10;93938.63;;;5.99;100.00
39681;BME280;26327;42.550;23.120;2022-12-18T08:17:35;93909.97;;;5.82;100.00
39681;BME280;26327;42.550;23.120;2022-12-18T08:20:01;93951.13;;;6.25;100.00
39681;BME280;26327;42.550;23.120;2022-12-18T08:22:26;93901.59;;;5.68;100.00
39681;BME280;26327;42.550;23.120;2022-12-18T08:24:52;93947.88;;;6.02;100.00
39681;BME280;26327;42.550;23.120;2022-12-18T08:27:17;93969.38;;;6.12;100.00
39681;BME280;26327;42.550;23.120;2022-12-18T08:29:42;93965.53;;;6.07;100.00
39681;BME280;26327;42.550;23.120;2022-12-18T08:32:08;93960.50;;;6.05;100.00
39681;BME280;26327;42.550;23.120;2022-12-18T08:34:33;93965.63;;;6.16;100.00
39681;BME280;26327;42.550;23.120;2022-12-18T08:36:59;93974.13;;;6.28;100.00
39681;BME280;26327;42.550;23.120;2022-12-18T08:39:24;93977.91;;;6.54;100.00
39681;BME280;26327;42.550;23.120;2022-12-18T08:41:50;93928.56;;;6.17;100.00
39681;BME280;26327;42.550;23.120;2022-12-18T08:44:34;93902.19;;;5.93;100.00
39681;BME280;26327;42.550;23.120;2022-12-18T08:47:06;93918.09;;;5.77;100.00
39681;BME280;26327;42.550;23.120;2022-12-18T08:49:32;93902.19;;;5.93;100.00
39681;BME280;26327;42.550;23.120;2022-12-18T08:51:58;93911.59;;;5.83;100.00
39681;BME280;26327;42.550;23.120;2022-12-18T08:54:24;93964.91;;;6.14;100.00
39681;BME280;26327;42.550;23.120;2022-12-18T08:56:50;93973.44;;;6.26;100.00
39681;BME280;26327;42.550;23.120;2022-12-18T08:59:16;93982.38;;;6.22;100.00
39681;BME280;26327;42.550;23.120;2022-12-18T09:01:41;93965.28;;;6.10;100.00
39681;BME280;26327;42.550;23.120;2022-12-18T09:04:08;93916.84;;;5.92;100.00
39681;BME280;26327;42.550;23.120;2022-12-18T09:06:34;93977.72;;;6.16;100.00
39681;BME280;26327;42.550;23.120;2022-12-18T09:08:59;93913.94;;;5.86;100.00
39681;BME280;26327;42.550;23.120;2022-12-18T09:11:26;93972.03;;;6.22;100.00
39681;BME280;26327;42.550;23.120;2022-12-18T09:13:53;93865.53;;;5.57;100.00
39681;BME280;26327;42.550;23.120;2022-12-18T09:16:19;93978.00;;;6.43;100.00
39681;BME280;26327;42.550;23.120;2022-12-18T09:18:46;93966.38;;;6.28;100.00
39681;BME280;26327;42.550;23.120;2022-12-18T09:21:19;93976.50;;;6.20;100.00
39681;BME280;26327;42.550;23.120;2022-12-18T09:23:50;93981.53;;;6.42;100.00
39681;BME280;26327;42.550;23.120;2022-12-18T09:26:16;93932.00;;;6.27;100.00
39681;BME280;26327;42.550;23.120;2022-12-18T09:28:42;93942.03;;;6.51;100.00
39681;BME280;26327;42.550;23.120;2022-12-18T09:31:08;93959.00;;;6.75;100.00
39681;BME280;26327;42.550;23.120;2022-12-18T09:33:35;93972.06;;;6.83;100.00
39681;BME280;26327;42.550;23.120;2022-12-18T09:36:03;93951.09;;;6.67;100.00
39681;BME280;26327;42.550;23.120;2022-12-18T09:38:28;93967.06;;;6.91;100.00
39681;BME280;26327;42.550;23.120;2022-12-18T09:40:59;93968.56;;;6.93;100.00
39681;BME280;26327;42.550;23.120;2022-12-18T09:43:35;93915.69;;;6.57;100.00
39681;BME280;26327;42.550;23.120;2022-12-18T09:46:08;93966.75;;;7.24;100.00
39681;BME280;26327;42.550;23.120;2022-12-18T09:48:48;93967.88;;;7.41;100.00
39681;BME280;26327;42.550;23.120;2022-12-18T09:51:19;93960.81;;;6.93;100.00
39681;BME280;26327;42.550;23.120;2022-12-18T09:54:07;93852.81;;;6.68;100.00
39681;BME280;26327;42.550;23.120;2022-12-18T09:56:40;93960.84;;;7.72;100.00
39681;BME280;26327;42.550;23.120;2022-12-18T09:59:17;93950.50;;;7.72;100.00
39681;BME280;26327;42.550;23.120;2022-12-18T10:01:43;93958.50;;;7.88;100.00
39681;BME280;26327;42.550;23.120;2022-12-18T10:04:09;93904.59;;;7.16;100.00
39681;BME280;26327;42.550;23.120;2022-12-18T10:06:36;93962.56;;;7.43;100.00
39681;BME280;26327;42.550;23.120;2022-12-18T10:11:47;93955.09;;;7.40;100.00
39681;BME280;26327;42.550;23.120;2022-12-18T10:22:41;93965.59;;;7.67;100.00
39681;BME280;26327;42.550;23.120;2022-12-18T10:28:17;93945.16;;;7.45;100.00
39681;BME280;26327;42.550;23.120;2022-12-18T10:30:44;93951.25;;;7.24;100.00
39681;BME280;26327;42.550;23.120;2022-12-18T10:33:21;93946.63;;;7.18;100.00
39681;BME280;26327;42.550;23.120;2022-12-18T10:35:52;93881.66;;;6.73;100.00
39681;BME280;26327;42.550;23.120;2022-12-18T10:41:23;93892.78;;;6.74;100.00
39681;BME280;26327;42.550;23.120;2022-12-18T10:44:17;93895.09;;;6.37;100.00
39681;BME280;26327;42.550;23.120;2022-12-18T10:46:45;93921.06;;;6.75;100.00
39681;BME280;26327;42.550;23.120;2022-12-18T10:49:26;93945.31;;;6.93;100.00
39681;BME280;26327;42.550;23.120;2022-12-18T10:52:06;93945.25;;;6.44;100.00
39681;BME280;26327;42.550;23.120;2022-12-18T10:54:34;93943.47;;;6.65;100.00
39681;BME280;26327;42.550;23.120;2022-12-18T10:57:19;93882.34;;;6.14;100.00
39681;BME280;26327;42.550;23.120;2022-12-18T10:59:56;93929.47;;;6.37;100.00
39681;BME280;26327;42.550;23.120;2022-12-18T11:02:35;93947.88;;;6.53;100.00
39681;BME280;26327;42.550;23.120;2022-12-18T11:05:02;93874.38;;;6.17;100.00
39681;BME280;26327;42.550;23.120;2022-12-18T11:07:47;93952.31;;;6.72;100.00
39681;BME280;26327;42.550;23.120;2022-12-18T11:10:18;93874.44;;;6.37;100.00
39681;BME280;26327;42.550;23.120;2022-12-18T11:12:45;93958.03;;;6.76;100.00
39681;BME280;26327;42.550;23.120;2022-12-18T11:15:23;93952.09;;;6.85;100.00
39681;BME280;26327;42.550;23.120;2022-12-18T11:17:51;93951.56;;;6.60;100.00
39681;BME280;26327;42.550;23.120;2022-12-18T11:20:21;93952.84;;;6.66;100.00
39681;BME280;26327;42.550;23.120;2022-12-18T11:23:11;93936.31;;;6.48;100.00
39681;BME280;26327;42.550;23.120;2022-12-18T11:25:38;93966.31;;;6.70;100.00
39681;BME280;26327;42.550;23.120;2022-12-18T11:31:09;93959.41;;;6.49;100.00
39681;BME280;26327;42.550;23.120;2022-12-18T11:33:39;93933.72;;;6.48;100.00
39681;BME280;26327;42.550;23.120;2022-12-18T11:36:08;93972.44;;;6.69;100.00
39681;BME280;26327;42.550;23.120;2022-12-18T11:38:39;93911.75;;;6.23;100.00
39681;BME280;26327;42.550;23.120;2022-12-18T11:41:26;93974.38;;;6.25;100.00
39681;BME280;26327;42.550;23.120;2022-12-18T11:44:16;93899.22;;;6.18;100.00
39681;BME280;26327;42.550;23.120;2022-12-18T11:49:47;93908.34;;;6.02;100.00
39681;BME280;26327;42.550;23.120;2022-12-18T11:52:18;93981.63;;;6.61;100.00
39681;BME280;26327;42.550;23.120;2022-12-18T11:54:44;93893.63;;;5.92;99.66
39681;BME280;26327;42.550;23.120;2022-12-18T12:03:07;93988.41;;;6.93;96.78
39681;BME280;26327;42.550;23.120;2022-12-18T12:12:04;93970.16;;;6.54;98.60
39681;BME280;26327;42.550;23.120;2022-12-18T12:17:27;93975.78;;;7.00;96.38
39681;BME280;26327;42.550;23.120;2022-12-18T12:20:11;93979.94;;;6.81;99.46
39681;BME280;26327;42.550;23.120;2022-12-18T12:25:31;93977.34;;;6.72;95.35
39681;BME280;26327;42.550;23.120;2022-12-18T12:34:04;93984.22;;;6.41;95.55
39681;BME280;26327;42.550;23.120;2022-12-18T12:39:07;93911.19;;;5.98;92.30
39681;BME280;26327;42.550;23.120;2022-12-18T12:41:35;93977.47;;;6.49;93.32
39681;BME280;26327;42.550;23.120;2022-12-18T12:44:45;93988.75;;;6.48;91.87
39681;BME280;26327;42.550;23.120;2022-12-18T12:47:18;93983.06;;;6.54;91.66
39681;BME280;26327;42.550;23.120;2022-12-18T12:49:46;93982.00;;;6.57;91.36
39681;BME280;26327;42.550;23.120;2022-12-18T12:52:31;93980.22;;;6.57;92.47
39681;BME280;26327;42.550;23.120;2022-12-18T12:54:59;93932.19;;;6.15;91.28
39681;BME280;26327;42.550;23.120;2022-12-18T12:57:34;93921.94;;;6.04;91.91
39681;BME280;26327;42.550;23.120;2022-12-18T13:00:07;93994.66;;;6.60;91.85
39681;BME280;26327;42.550;23.120;2022-12-18T13:08:03;94001.91;;;6.45;90.88
39681;BME280;26327;42.550;23.120;2022-12-18T13:13:09;93992.97;;;6.49;90.92
39681;BME280;26327;42.550;23.120;2022-12-18T13:18:27;94000.06;;;6.26;90.54
39681;BME280;26327;42.550;23.120;2022-12-18T13:23:29;93979.16;;;6.29;89.63
39681;BME280;26327;42.550;23.120;2022-12-18T13:34:20;93955.78;;;5.89;89.75
39681;BME280;26327;42.550;23.120;2022-12-18T13:36:47;94015.63;;;6.04;90.11
39681;BME280;26327;42.550;23.120;2022-12-18T13:41:48;94025.66;;;6.39;89.58
39681;BME280;26327;42.550;23.120;2022-12-18T13:46:59;93963.31;;;5.81;91.76
39681;BME280;26327;42.550;23.120;2022-12-18T13:51:53;94035.69;;;6.32;90.89
39681;BME280;26327;42.550;23.120;2022-12-18T13:54:30;93984.25;;;5.88;90.59
39681;BME280;26327;42.550;23.120;2022-12-18T13:56:58;94023.88;;;5.98;93.64
39681;BME280;26327;42.550;23.120;2022-12-18T13:59:25;93997.66;;;5.82;92.48
39681;BME280;26327;42.550;23.120;2022-12-18T14:04:18;94007.28;;;5.80;93.12
39681;BME280;26327;42.550;23.120;2022-12-18T14:06:46;94014.44;;;6.08;92.61
39681;BME280;26327;42.550;23.120;2022-12-18T14:09:15;94011.34;;;6.14;92.58
39681;BME280;26327;42.550;23.120;2022-12-18T14:11:48;94022.56;;;6.04;92.60
39681;BME280;26327;42.550;23.120;2022-12-18T14:14:18;94023.88;;;5.87;92.68
39681;BME280;26327;42.550;23.120;2022-12-18T14:16:44;94036.84;;;5.64;94.16
39681;BME280;26327;42.550;23.120;2022-12-18T14:19:16;94036.22;;;5.40;94.98
39681;BME280;26327;42.550;23.120;2022-12-18T14:21:46;93981.91;;;5.10;95.80
39681;BME280;26327;42.550;23.120;2022-12-18T14:26:39;93984.75;;;4.95;96.94
39681;BME280;26327;42.550;23.120;2022-12-18T14:29:21;94060.91;;;5.43;97.63
39681;BME280;26327;42.550;23.120;2022-12-18T14:34:32;94012.91;;;5.30;97.21
39681;BME280;26327;42.550;23.120;2022-12-18T14:36:57;93942.59;;;4.96;96.65
39681;BME280;26327;42.550;23.120;2022-12-18T14:39:22;94054.31;;;5.61;95.79
39681;BME280;26327;42.550;23.120;2022-12-18T14:41:51;94060.44;;;5.49;95.63
39681;BME280;26327;42.550;23.120;2022-12-18T14:44:16;94066.16;;;5.52;95.27
39681;BME280;26327;42.550;23.120;2022-12-18T14:46:46;93994.19;;;5.17;95.58
39681;BME280;26327;42.550;23.120;2022-12-18T14:49:29;94059.22;;;5.64;96.38
39681;BME280;26327;42.550;23.120;2022-12-18T14:51:57;94043.88;;;5.62;96.29
39681;BME280;26327;42.550;23.120;2022-12-18T14:54:23;94047.03;;;5.66;94.95
39681;BME280;26327;42.550;23.120;2022-12-18T14:59:30;94005.78;;;5.34;95.01